Time;durP1;ratioP1;P1;durP2;ratioP2;P2;SDS_P1;SDS_P2;PMS_P1;PMS_P2;Temp;Humidity;BMP_temperature;BMP_pressure;BME280_temperature;BME280_humidity;BME280_pressure;Samples;Min_cycle;Max_cycle;Signal;HPM_P1;HPM_P2
2022/12/31 00:01:57;;;;;;;96.97;49.60;;;;;;;;;;4982826;28;20057;-77
2022/12/31 00:04:23;;;;;;;89.97;46.70;;;;;;;;;;5010635;23;20082;-77
2022/12/31 00:06:48;;;;;;;88.90;46.00;;;;;;;;;;4977985;28;20034;-77
2022/12/31 00:09:14;;;;;;;89.32;46.50;;;;;;;;;;4976434;28;20409;-78
2022/12/31 00:11:40;;;;;;;86.10;46.70;;;;;;;;;;4970731;28;20031;-78
2022/12/31 00:14:06;;;;;;;85.85;46.35;;;;;;;;;;4971465;28;20062;-78
2022/12/31 00:16:36;;;;;;;103.47;54.08;;;;;;;;;;4973451;28;20050;-78
2022/12/31 00:19:03;;;;;;;130.07;58.42;;;;;;;;;;4972701;28;20551;-78
2022/12/31 00:21:31;;;;;;;103.20;51.10;;;;;;;;;;4972938;28;20045;-77
2022/12/31 00:23:57;;;;;;;97.35;47.28;;;;;;;;;;4970479;28;20169;-76
2022/12/31 00:26:25;;;;;;;95.03;48.95;;;;;;;;;;4971763;28;20110;-77
2022/12/31 00:28:53;;;;;;;107.03;50.60;;;;;;;;;;4970826;28;20113;-78
2022/12/31 00:31:26;;;;;;;102.93;49.92;;;;;;;;;;4972682;28;20034;-78
2022/12/31 00:33:52;;;;;;;85.78;43.20;;;;;;;;;;4970369;28;20051;-77
2022/12/31 00:36:21;;;;;;;83.82;41.53;;;;;;;;;;4971744;28;20058;-77
2022/12/31 00:38:50;;;;;;;83.43;41.10;;;;;;;;;;4975142;28;20045;-77
2022/12/31 00:41:17;;;;;;;90.85;38.10;;;;;;;;;;4972380;28;20030;-77
2022/12/31 00:43:43;;;;;;;74.75;37.55;;;;;;;;;;4971978;28;20026;-77
2022/12/31 00:46:10;;;;;;;70.63;35.10;;;;;;;;;;4974597;28;20045;-76
2022/12/31 00:48:37;;;;;;;77.57;36.38;;;;;;;;;;4975949;28;20485;-77
2022/12/31 00:51:05;;;;;;;67.63;34.95;;;;;;;;;;4974884;28;20471;-76
2022/12/31 00:53:31;;;;;;;77.15;36.00;;;;;;;;;;4976046;28;20477;-77
2022/12/31 00:56:11;;;;;;;70.57;35.83;;;;;;;;;;4974924;28;20400;-77
2022/12/31 00:58:37;;;;;;;70.82;36.67;;;;;;;;;;4973243;28;20489;-77
2022/12/31 01:01:26;;;;;;;59.90;33.88;;;;;;;;;;5000437;28;20034;-77
2022/12/31 01:03:55;;;;;;;61.10;33.28;;;;;;;;;;4988510;28;20034;-76
2022/12/31 01:06:22;;;;;;;66.68;36.20;;;;;;;;;;4979937;28;20548;-78
2022/12/31 01:08:49;;;;;;;67.63;34.85;;;;;;;;;;4962517;28;20089;-78
2022/12/31 01:11:18;;;;;;;63.88;34.53;;;;;;;;;;4991302;28;20530;-77
2022/12/31 01:13:50;;;;;;;65.20;33.83;;;;;;;;;;4995436;28;20043;-76
2022/12/31 01:16:17;;;;;;;59.97;32.88;;;;;;;;;;4984605;28;20088;-78
2022/12/31 01:18:43;;;;;;;62.53;32.47;;;;;;;;;;4978466;28;20034;-78
2022/12/31 01:21:14;;;;;;;65.00;31.48;;;;;;;;;;4992025;28;20105;-78
2022/12/31 01:23:40;;;;;;;59.50;29.77;;;;;;;;;;4979504;28;20043;-78
2022/12/31 01:26:08;;;;;;;67.43;29.17;;;;;;;;;;4978174;28;20029;-78
2022/12/31 01:28:36;;;;;;;57.42;25.67;;;;;;;;;;4981596;28;20543;-78
2022/12/31 01:31:04;;;;;;;53.75;23.88;;;;;;;;;;4982490;28;20101;-77
2022/12/31 01:33:30;;;;;;;53.35;23.30;;;;;;;;;;4978152;28;20070;-79
2022/12/31 01:36:04;;;;;;;48.75;20.42;;;;;;;;;;4980421;28;20027;-79
2022/12/31 01:38:30;;;;;;;33.60;17.90;;;;;;;;;;4982428;28;20070;-78
2022/12/31 01:40:56;;;;;;;38.28;19.58;;;;;;;;;;4980015;28;20031;-77
2022/12/31 01:43:22;;;;;;;36.15;19.02;;;;;;;;;;4993325;28;20110;-77
2022/12/31 01:45:51;;;;;;;43.70;20.05;;;;;;;;;;4979221;28;20062;-78
2022/12/31 01:48:22;;;;;;;38.78;18.08;;;;;;;;;;4978741;28;20053;-77
2022/12/31 01:50:49;;;;;;;42.25;19.70;;;;;;;;;;4977200;28;20516;-77
2022/12/31 01:53:16;;;;;;;40.30;17.13;;;;;;;;;;4977906;28;20098;-77
2022/12/31 01:55:45;;;;;;;35.58;17.92;;;;;;;;;;4984002;28;20397;-80
2022/12/31 01:58:16;;;;;;;29.77;16.90;;;;;;;;;;4956713;28;20104;-78
2022/12/31 02:00:43;;;;;;;29.25;16.75;;;;;;;;;;4995468;28;20031;-79
2022/12/31 02:03:09;;;;;;;29.38;15.73;;;;;;;;;;4992728;28;20034;-79
2022/12/31 02:05:41;;;;;;;30.25;17.52;;;;;;;;;;4979400;28;20153;-77
2022/12/31 02:08:07;;;;;;;34.80;16.88;;;;;;;;;;4979550;28;20039;-79
2022/12/31 02:10:33;;;;;;;34.42;17.10;;;;;;;;;;4982300;28;20031;-77
2022/12/31 02:13:00;;;;;;;31.85;16.60;;;;;;;;;;4977981;28;20042;-77
2022/12/31 02:15:56;;;;;;;37.20;17.77;;;;;;;;;;4978362;28;20097;-77
2022/12/31 02:18:28;;;;;;;32.38;16.55;;;;;;;;;;4961991;28;20053;-79
2022/12/31 02:21:21;;;;;;;35.70;17.77;;;;;;;;;;4984343;28;20118;-78
2022/12/31 02:23:50;;;;;;;32.90;18.20;;;;;;;;;;4980756;28;20103;-80
2022/12/31 02:26:49;;;;;;;37.88;20.15;;;;;;;;;;4997979;28;20026;-79
2022/12/31 02:29:34;;;;;;;42.83;20.83;;;;;;;;;;4980762;28;20073;-78
2022/12/31 02:32:10;;;;;;;36.65;19.85;;;;;;;;;;5000162;28;20558;-79
2022/12/31 02:34:40;;;;;;;35.00;17.45;;;;;;;;;;4981260;28;20188;-79
2022/12/31 02:37:11;;;;;;;36.88;19.00;;;;;;;;;;4985795;28;20034;-80
2022/12/31 02:39:39;;;;;;;39.92;20.60;;;;;;;;;;4995205;28;20591;-79
2022/12/31 02:42:05;;;;;;;37.38;19.65;;;;;;;;;;4995238;28;20054;-77
2022/12/31 02:44:37;;;;;;;38.08;20.25;;;;;;;;;;4974734;28;20070;-76
2022/12/31 02:47:06;;;;;;;35.75;18.70;;;;;;;;;;4974253;28;20180;-76
2022/12/31 02:49:39;;;;;;;38.15;19.67;;;;;;;;;;4960093;28;20389;-77
2022/12/31 02:52:09;;;;;;;;;;;;;;;;;;4982552;28;20416;-78
2022/12/31 02:54:38;;;;;;;38.65;19.15;;;;;;;;;;4978868;28;19953;-78
2022/12/31 02:57:40;;;;;;;35.15;19.20;;;;;;;;;;4982098;28;20396;-79
2022/12/31 03:02:57;;;;;;;39.10;19.48;;;;;;;;;;4983658;28;20097;-78
2022/12/31 03:05:28;;;;;;;31.90;18.48;;;;;;;;;;4965181;28;20046;-77
2022/12/31 03:07:54;;;;;;;33.60;18.48;;;;;;;;;;4992109;28;20043;-78
2022/12/31 03:10:20;;;;;;;38.72;19.42;;;;;;;;;;4986339;28;20042;-77
2022/12/31 03:12:47;;;;;;;36.00;19.65;;;;;;;;;;4992006;28;20094;-77
2022/12/31 03:15:26;;;;;;;41.25;20.55;;;;;;;;;;4983446;28;20077;-77
2022/12/31 03:17:58;;;;;;;39.05;19.75;;;;;;;;;;4978225;28;20511;-78
2022/12/31 03:23:16;;;;;;;36.28;18.60;;;;;;;;;;4992779;28;20038;-78
2022/12/31 03:25:42;;;;;;;51.38;20.05;;;;;;;;;;4977255;28;20057;-78
2022/12/31 03:28:13;;;;;;;44.47;21.15;;;;;;;;;;4974352;28;20093;-78
2022/12/31 03:30:41;;;;;;;42.47;21.08;;;;;;;;;;4976455;28;20800;-78
2022/12/31 03:33:07;;;;;;;50.60;20.88;;;;;;;;;;4974572;28;20034;-79
2022/12/31 03:35:36;;;;;;;40.95;22.33;;;;;;;;;;4971967;28;20043;-78
2022/12/31 03:38:02;;;;;;;41.15;19.83;;;;;;;;;;4976291;28;20117;-78
2022/12/31 03:40:30;;;;;;;43.08;21.52;;;;;;;;;;4977776;28;20039;-78
2022/12/31 03:42:57;;;;;;;75.40;25.85;;;;;;;;;;4973625;28;20056;-77
2022/12/31 03:45:23;;;;;;;57.40;26.30;;;;;;;;;;4974460;28;20031;-79
2022/12/31 03:47:48;;;;;;;81.30;31.88;;;;;;;;;;4973128;28;20412;-77
2022/12/31 03:50:16;;;;;;;78.50;29.35;;;;;;;;;;4973958;28;20706;-78
2022/12/31 03:52:42;;;;;;;72.18;31.63;;;;;;;;;;4973156;28;20088;-78
2022/12/31 03:55:09;;;;;;;77.35;31.65;;;;;;;;;;4973252;28;20043;-77
2022/12/31 03:57:35;;;;;;;69.13;31.30;;;;;;;;;;4972160;28;20058;-79
2022/12/31 04:00:04;;;;;;;77.40;32.13;;;;;;;;;;4976479;28;20039;-77
2022/12/31 04:02:30;;;;;;;79.55;34.47;;;;;;;;;;4972068;28;20026;-76
2022/12/31 04:04:56;;;;;;;82.93;36.03;;;;;;;;;;4973643;28;20924;-79
2022/12/31 04:07:21;;;;;;;83.90;34.85;;;;;;;;;;4973558;28;20035;-77
2022/12/31 04:09:48;;;;;;;91.32;36.10;;;;;;;;;;4972609;28;20398;-79
2022/12/31 04:12:13;;;;;;;82.63;35.92;;;;;;;;;;4972526;28;20069;-77
2022/12/31 04:14:39;;;;;;;77.45;33.00;;;;;;;;;;4973099;28;20034;-78
2022/12/31 04:17:05;;;;;;;81.82;34.00;;;;;;;;;;4970992;28;20023;-77
2022/12/31 04:19:31;;;;;;;65.53;31.13;;;;;;;;;;4972171;28;20035;-78
2022/12/31 04:21:57;;;;;;;77.78;34.83;;;;;;;;;;4987908;28;20031;-79
2022/12/31 04:24:23;;;;;;;68.07;29.60;;;;;;;;;;4974546;28;20026;-78
2022/12/31 04:26:49;;;;;;;60.30;26.80;;;;;;;;;;4974814;28;20057;-79
2022/12/31 04:29:15;;;;;;;74.22;31.20;;;;;;;;;;4972238;28;20465;-76
2022/12/31 04:31:41;;;;;;;70.25;31.02;;;;;;;;;;4975475;28;20034;-78
2022/12/31 04:34:07;;;;;;;84.43;34.05;;;;;;;;;;4973747;28;20093;-77
2022/12/31 04:36:33;;;;;;;68.90;29.48;;;;;;;;;;4972860;28;20022;-77
2022/12/31 04:38:59;;;;;;;69.18;29.98;;;;;;;;;;4971486;28;20501;-78
2022/12/31 04:41:25;;;;;;;69.65;29.15;;;;;;;;;;4971737;28;20067;-79
2022/12/31 04:43:54;;;;;;;76.40;27.63;;;;;;;;;;4972159;28;20027;-77
2022/12/31 04:46:32;;;;;;;53.10;27.73;;;;;;;;;;4974214;28;20061;-79
2022/12/31 04:48:58;;;;;;;55.60;27.35;;;;;;;;;;4974305;28;20057;-77
2022/12/31 04:51:25;;;;;;;60.75;27.48;;;;;;;;;;4974106;28;20095;-77
2022/12/31 04:53:51;;;;;;;66.32;28.00;;;;;;;;;;4972896;28;20042;-78
2022/12/31 04:56:18;;;;;;;67.68;29.17;;;;;;;;;;4976108;28;20050;-79
2022/12/31 04:58:46;;;;;;;74.65;28.20;;;;;;;;;;4978418;28;20370;-79
2022/12/31 05:01:13;;;;;;;86.35;33.47;;;;;;;;;;4975037;28;20543;-78
2022/12/31 05:03:38;;;;;;;77.25;27.52;;;;;;;;;;4971272;28;20051;-79
2022/12/31 05:06:09;;;;;;;62.63;28.55;;;;;;;;;;4974840;28;20045;-78
2022/12/31 05:08:36;;;;;;;84.43;29.80;;;;;;;;;;4973094;28;20106;-77
2022/12/31 05:11:02;;;;;;;74.70;30.77;;;;;;;;;;4970677;28;20145;-78
2022/12/31 05:13:28;;;;;;;104.47;32.60;;;;;;;;;;4988181;28;20101;-79
2022/12/31 05:15:55;;;;;;;86.70;31.08;;;;;;;;;;4972132;28;20053;-79
2022/12/31 05:18:22;;;;;;;108.63;36.25;;;;;;;;;;4972822;28;20046;-78
2022/12/31 05:20:48;;;;;;;100.63;35.78;;;;;;;;;;4976187;28;20129;-78
2022/12/31 05:23:15;;;;;;;72.55;32.92;;;;;;;;;;4978768;28;20481;-80
2022/12/31 05:25:42;;;;;;;75.70;33.38;;;;;;;;;;4961191;28;20396;-77
2022/12/31 05:28:09;;;;;;;86.20;33.53;;;;;;;;;;4984694;28;20090;-77
2022/12/31 05:30:35;;;;;;;101.30;37.70;;;;;;;;;;4986397;28;20018;-78
2022/12/31 05:33:01;;;;;;;116.15;38.20;;;;;;;;;;4990294;28;20477;-78
2022/12/31 05:35:27;;;;;;;104.25;36.40;;;;;;;;;;4993772;28;20021;-78
2022/12/31 05:37:54;;;;;;;132.60;40.83;;;;;;;;;;4999376;28;20053;-77
2022/12/31 05:40:20;;;;;;;131.63;39.75;;;;;;;;;;4989067;28;20023;-78
2022/12/31 05:42:48;;;;;;;119.05;36.95;;;;;;;;;;4987328;28;20042;-78
2022/12/31 05:45:14;;;;;;;101.50;36.83;;;;;;;;;;4992428;28;20024;-76
2022/12/31 05:47:40;;;;;;;130.80;40.47;;;;;;;;;;4990897;28;20030;-76
2022/12/31 05:50:08;;;;;;;107.20;37.33;;;;;;;;;;4987685;28;20030;-78
2022/12/31 05:52:35;;;;;;;124.90;42.05;;;;;;;;;;4978600;28;20421;-76
2022/12/31 05:55:01;;;;;;;152.73;41.00;;;;;;;;;;4978268;28;20026;-77
2022/12/31 05:57:27;;;;;;;196.63;46.17;;;;;;;;;;4976985;28;20094;-77
2022/12/31 05:59:52;;;;;;;157.38;42.97;;;;;;;;;;4976109;28;20058;-78
2022/12/31 06:02:19;;;;;;;158.90;45.95;;;;;;;;;;4978408;28;20117;-76
2022/12/31 06:04:46;;;;;;;151.27;48.58;;;;;;;;;;4978437;28;20074;-78
2022/12/31 06:07:13;;;;;;;118.82;41.58;;;;;;;;;;4977694;28;20039;-77
2022/12/31 06:09:38;;;;;;;163.57;43.55;;;;;;;;;;4977234;28;20038;-78
2022/12/31 06:12:05;;;;;;;144.98;42.20;;;;;;;;;;4977734;28;20515;-78
2022/12/31 06:14:32;;;;;;;119.43;41.38;;;;;;;;;;4979862;28;20496;-78
2022/12/31 06:16:58;;;;;;;114.90;42.22;;;;;;;;;;4978171;28;20066;-77
2022/12/31 06:19:24;;;;;;;102.93;42.47;;;;;;;;;;4977481;28;20027;-78
2022/12/31 06:21:50;;;;;;;111.40;43.10;;;;;;;;;;4981005;28;20114;-77
2022/12/31 06:24:16;;;;;;;148.15;47.22;;;;;;;;;;4976552;28;20501;-77
2022/12/31 06:26:42;;;;;;;124.07;43.42;;;;;;;;;;4961925;28;20035;-78
2022/12/31 06:29:09;;;;;;;114.82;38.85;;;;;;;;;;4977201;28;20403;-78
2022/12/31 06:31:35;;;;;;;103.88;39.13;;;;;;;;;;4979617;28;20035;-79
2022/12/31 06:34:01;;;;;;;100.63;42.15;;;;;;;;;;4985227;28;20047;-77
2022/12/31 06:36:27;;;;;;;113.07;40.35;;;;;;;;;;5003550;28;20064;-77
2022/12/31 06:38:54;;;;;;;80.43;36.70;;;;;;;;;;4988498;28;20027;-76
2022/12/31 06:41:20;;;;;;;78.88;37.50;;;;;;;;;;4983896;28;20041;-77
2022/12/31 06:43:47;;;;;;;73.88;35.28;;;;;;;;;;4984667;28;20050;-76
2022/12/31 06:46:15;;;;;;;61.78;33.72;;;;;;;;;;4978402;28;20034;-77
2022/12/31 06:48:43;;;;;;;58.65;32.05;;;;;;;;;;4981151;28;20091;-78
2022/12/31 06:51:15;;;;;;;73.35;33.85;;;;;;;;;;4962191;28;20057;-76
2022/12/31 06:53:41;;;;;;;101.05;34.42;;;;;;;;;;4977965;28;20041;-79
2022/12/31 06:56:17;;;;;;;98.72;36.95;;;;;;;;;;4976887;28;20030;-78
2022/12/31 06:58:44;;;;;;;109.53;39.55;;;;;;;;;;4980821;28;20042;-77
2022/12/31 07:01:13;;;;;;;75.32;33.50;;;;;;;;;;4977233;28;20019;-77
2022/12/31 07:03:47;;;;;;;75.75;31.60;;;;;;;;;;4977080;28;20027;-77
2022/12/31 07:06:44;;;;;;;81.43;32.08;;;;;;;;;;4978082;28;20500;-76
2022/12/31 07:09:25;;;;;;;72.28;30.30;;;;;;;;;;4980624;28;20192;-77
2022/12/31 07:12:12;;;;;;;85.18;31.67;;;;;;;;;;4983282;28;20038;-76
2022/12/31 07:14:47;;;;;;;81.53;31.45;;;;;;;;;;4999122;28;20046;-76
2022/12/31 07:17:33;;;;;;;71.82;29.45;;;;;;;;;;4973852;28;20041;-78
2022/12/31 07:20:12;;;;;;;79.70;31.35;;;;;;;;;;4971382;28;20370;-77
2022/12/31 07:22:39;;;;;;;85.53;32.78;;;;;;;;;;4986584;28;20031;-76
2022/12/31 07:25:06;;;;;;;94.35;32.72;;;;;;;;;;4965913;28;20481;-77
2022/12/31 07:28:06;;;;;;;90.78;33.15;;;;;;;;;;4974205;28;20092;-78
2022/12/31 07:31:09;;;;;;;77.85;33.03;;;;;;;;;;4972147;28;20031;-78
2022/12/31 07:33:56;;;;;;;90.13;35.97;;;;;;;;;;4974247;28;20046;-76
2022/12/31 07:36:47;;;;;;;87.60;35.35;;;;;;;;;;4989799;28;20038;-76
2022/12/31 07:39:39;;;;;;;87.25;37.05;;;;;;;;;;4982100;28;20088;-75
2022/12/31 07:42:15;;;;;;;97.50;40.08;;;;;;;;;;4978172;28;20054;-76
2022/12/31 07:44:55;;;;;;;105.32;41.65;;;;;;;;;;4972789;28;20081;-74
2022/12/31 07:47:24;;;;;;;88.57;34.78;;;;;;;;;;4978002;28;20026;-77
2022/12/31 07:49:52;;;;;;;81.95;30.52;;;;;;;;;;4977693;28;20042;-74
2022/12/31 07:52:19;;;;;;;49.03;25.85;;;;;;;;;;4977688;28;20034;-74
2022/12/31 07:54:46;;;;;;;52.15;27.83;;;;;;;;;;4986607;28;20106;-75
2022/12/31 07:57:13;;;;;;;48.30;25.17;;;;;;;;;;4986252;28;20034;-74
2022/12/31 07:59:48;;;;;;;51.65;25.52;;;;;;;;;;4977139;28;20109;-74
2022/12/31 08:02:24;;;;;;;57.25;28.23;;;;;;;;;;5000187;28;20484;-75
2022/12/31 08:04:59;;;;;;;57.70;25.85;;;;;;;;;;4980365;28;20054;-74
2022/12/31 08:07:27;;;;;;;42.97;23.50;;;;;;;;;;4975352;28;20040;-74
2022/12/31 08:10:01;;;;;;;41.85;24.17;;;;;;;;;;4985730;28;20023;-72
2022/12/31 08:12:29;;;;;;;;;;;;;;;;;;4992195;28;20444;-73
2022/12/31 08:14:55;;;;;;;43.17;24.17;;;;;;;;;;4981558;28;21309;-75
2022/12/31 08:17:21;;;;;;;42.75;21.92;;;;;;;;;;4976446;28;20041;-75
2022/12/31 08:19:47;;;;;;;47.65;23.65;;;;;;;;;;4982156;28;20018;-75
2022/12/31 08:22:25;;;;;;;58.58;26.48;;;;;;;;;;4979904;28;20545;-74
2022/12/31 08:25:15;;;;;;;67.53;28.30;;;;;;;;;;4977738;28;20065;-73
2022/12/31 08:27:56;;;;;;;55.83;27.10;;;;;;;;;;4980780;28;20047;-74
2022/12/31 08:30:27;;;;;;;46.97;23.50;;;;;;;;;;4989837;28;20034;-73
2022/12/31 08:33:18;;;;;;;57.42;24.63;;;;;;;;;;4976855;28;20062;-73
2022/12/31 08:35:56;;;;;;;56.03;27.17;;;;;;;;;;4952081;28;20035;-73
2022/12/31 08:38:46;;;;;;;57.75;29.52;;;;;;;;;;4974945;28;20083;-76
2022/12/31 08:41:50;;;;;;;57.45;28.38;;;;;;;;;;4981819;28;20035;-74
2022/12/31 08:44:40;;;;;;;77.85;32.47;;;;;;;;;;4931310;29;20040;-75
2022/12/31 08:47:15;;;;;;;70.68;30.15;;;;;;;;;;4926683;29;20113;-72
2022/12/31 08:49:41;;;;;;;57.22;27.23;;;;;;;;;;4960683;28;20042;-72
2022/12/31 08:52:22;;;;;;;54.90;28.27;;;;;;;;;;4972488;28;20358;-73
2022/12/31 08:54:49;;;;;;;43.22;23.80;;;;;;;;;;4980906;28;20042;-73
2022/12/31 08:57:38;;;;;;;66.78;25.65;;;;;;;;;;4977687;28;20034;-73
2022/12/31 09:00:16;;;;;;;58.15;25.77;;;;;;;;;;4978341;28;20034;-73
2022/12/31 09:03:02;;;;;;;55.90;24.65;;;;;;;;;;4979953;28;20062;-76
2022/12/31 09:05:39;;;;;;;49.30;24.77;;;;;;;;;;4952958;28;20652;-77
2022/12/31 09:08:14;;;;;;;54.63;24.65;;;;;;;;;;4961367;28;20138;-75
2022/12/31 09:10:48;;;;;;;58.95;27.85;;;;;;;;;;4973060;28;20038;-75
2022/12/31 09:13:41;;;;;;;70.97;29.45;;;;;;;;;;4971655;28;20042;-74
2022/12/31 09:16:21;;;;;;;59.05;27.80;;;;;;;;;;4975177;28;20026;-75
2022/12/31 09:18:48;;;;;;;62.85;28.38;;;;;;;;;;4981910;28;20057;-74
2022/12/31 09:21:14;;;;;;;59.38;27.10;;;;;;;;;;4981181;28;20018;-74
2022/12/31 09:23:42;;;;;;;66.32;27.70;;;;;;;;;;4982634;28;20037;-74
2022/12/31 09:26:44;;;;;;;49.80;25.15;;;;;;;;;;4983347;28;20105;-73
2022/12/31 09:29:44;;;;;;;54.17;24.98;;;;;;;;;;4974324;28;20035;-74
2022/12/31 09:32:28;;;;;;;41.03;23.88;;;;;;;;;;4981293;28;20045;-73
2022/12/31 09:35:20;;;;;;;;;;;;;;;;;;4985225;28;20045;-72
2022/12/31 09:37:49;;;;;;;47.13;26.10;;;;;;;;;;4965087;28;20019;-72
2022/12/31 09:40:27;;;;;;;55.72;27.45;;;;;;;;;;4982651;28;20034;-73
2022/12/31 09:43:12;;;;;;;63.22;27.77;;;;;;;;;;4980397;28;20145;-73
2022/12/31 09:45:56;;;;;;;58.13;28.48;;;;;;;;;;4982272;28;20026;-74
2022/12/31 09:48:35;;;;;;;54.75;27.83;;;;;;;;;;4978731;28;20480;-75
2022/12/31 09:51:28;;;;;;;57.28;29.77;;;;;;;;;;4979590;28;20052;-74
2022/12/31 09:54:19;;;;;;;65.32;30.60;;;;;;;;;;4974946;28;20102;-73
2022/12/31 09:57:03;;;;;;;72.95;33.38;;;;;;;;;;4989190;28;20034;-72
2022/12/31 09:59:38;;;;;;;80.75;38.35;;;;;;;;;;4985768;28;20070;-74
2022/12/31 10:02:27;;;;;;;74.78;36.55;;;;;;;;;;4988323;28;20035;-73
2022/12/31 10:05:11;;;;;;;82.32;37.83;;;;;;;;;;4955329;28;20513;-74
2022/12/31 10:07:55;;;;;;;79.25;38.30;;;;;;;;;;4984507;28;20134;-75
2022/12/31 10:10:37;;;;;;;;;;;;;;;;;;4983466;28;20109;-75
2022/12/31 10:13:34;;;;;;;91.22;38.88;;;;;;;;;;4980180;28;19921;-74
2022/12/31 10:16:15;;;;;;;97.22;42.22;;;;;;;;;;4972321;28;20133;-75
2022/12/31 10:19:13;;;;;;;98.93;45.33;;;;;;;;;;4980312;28;20106;-74
2022/12/31 10:21:41;;;;;;;101.78;45.92;;;;;;;;;;4978610;28;20114;-74
2022/12/31 10:24:29;;;;;;;77.25;39.45;;;;;;;;;;4995360;28;20480;-74
2022/12/31 10:27:03;;;;;;;76.85;39.97;;;;;;;;;;4963638;28;20030;-76
2022/12/31 10:30:02;;;;;;;93.88;43.65;;;;;;;;;;4976585;28;20067;-77
2022/12/31 10:32:41;;;;;;;111.53;45.67;;;;;;;;;;4980070;28;20049;-74
2022/12/31 10:35:28;;;;;;;99.40;46.40;;;;;;;;;;4981176;28;20037;-74
2022/12/31 10:38:15;;;;;;;117.65;47.92;;;;;;;;;;4978496;28;20039;-75
2022/12/31 10:41:16;;;;;;;104.30;48.67;;;;;;;;;;4982717;28;20045;-75
2022/12/31 10:44:01;;;;;;;127.40;50.40;;;;;;;;;;4943351;29;20039;-74
2022/12/31 10:47:04;;;;;;;124.57;50.95;;;;;;;;;;4968983;28;20058;-74
2022/12/31 10:49:51;;;;;;;126.85;51.45;;;;;;;;;;4969525;28;20512;-74
2022/12/31 10:52:36;;;;;;;138.20;57.08;;;;;;;;;;4978575;28;20031;-74
2022/12/31 10:55:32;;;;;;;140.63;57.10;;;;;;;;;;4981956;28;20120;-75
2022/12/31 10:58:34;;;;;;;142.43;56.80;;;;;;;;;;4982274;28;20039;-76
2022/12/31 11:01:16;;;;;;;128.98;49.70;;;;;;;;;;4982348;28;20031;-76
2022/12/31 11:04:03;;;;;;;127.95;52.45;;;;;;;;;;4983660;28;20117;-76
2022/12/31 11:07:00;;;;;;;138.65;54.83;;;;;;;;;;4972115;28;20047;-75
2022/12/31 11:09:53;;;;;;;139.68;55.22;;;;;;;;;;4973408;28;20069;-76
2022/12/31 11:12:37;;;;;;;124.57;48.97;;;;;;;;;;4973734;28;20210;-75
2022/12/31 11:15:34;;;;;;;131.88;49.28;;;;;;;;;;4972251;28;20031;-77
2022/12/31 11:18:32;;;;;;;127.10;50.15;;;;;;;;;;4982302;28;20392;-76
2022/12/31 11:21:08;;;;;;;125.32;47.45;;;;;;;;;;4942452;29;20058;-76
2022/12/31 11:23:56;;;;;;;120.63;45.67;;;;;;;;;;4956685;28;20061;-75
2022/12/31 11:26:43;;;;;;;108.07;43.75;;;;;;;;;;4956088;28;20489;-77
2022/12/31 11:29:28;;;;;;;90.22;38.00;;;;;;;;;;4972664;28;20041;-74
2022/12/31 11:32:05;;;;;;;87.38;36.45;;;;;;;;;;4972922;28;20057;-74
2022/12/31 11:34:36;;;;;;;86.13;36.53;;;;;;;;;;4964069;28;20035;-74
2022/12/31 11:37:40;;;;;;;89.63;36.00;;;;;;;;;;4973426;28;20049;-74
2022/12/31 11:40:22;;;;;;;95.60;36.28;;;;;;;;;;4976478;28;20038;-75
2022/12/31 11:43:11;;;;;;;99.57;38.58;;;;;;;;;;4968967;28;20150;-75
2022/12/31 11:46:01;;;;;;;90.35;37.63;;;;;;;;;;4973140;28;20073;-75
2022/12/31 11:48:55;;;;;;;95.00;38.15;;;;;;;;;;4973248;28;20046;-76
2022/12/31 11:51:21;;;;;;;;;;;;;;;;;;4973680;28;20057;-74
2022/12/31 11:54:10;;;;;;;101.45;39.58;;;;;;;;;;4973032;28;20005;-77
2022/12/31 11:56:50;;;;;;;100.65;39.17;;;;;;;;;;4967787;28;20523;-77
2022/12/31 11:59:16;;;;;;;110.95;41.33;;;;;;;;;;4973019;28;20054;-76
2022/12/31 12:02:03;;;;;;;106.60;41.63;;;;;;;;;;4973221;28;20365;-77
2022/12/31 12:04:29;;;;;;;102.97;41.92;;;;;;;;;;4961689;28;20085;-76
2022/12/31 12:06:56;;;;;;;98.85;39.50;;;;;;;;;;4972874;28;20114;-77
2022/12/31 12:09:31;;;;;;;100.95;42.83;;;;;;;;;;4972735;28;20050;-76
2022/12/31 12:12:03;;;;;;;106.72;42.55;;;;;;;;;;4973031;28;20093;-76
2022/12/31 12:14:36;;;;;;;98.25;39.95;;;;;;;;;;4971244;28;20122;-77
2022/12/31 12:17:06;;;;;;;95.80;40.13;;;;;;;;;;4973907;28;20417;-77
2022/12/31 12:19:40;;;;;;;95.28;39.97;;;;;;;;;;4984231;28;20034;-74
2022/12/31 12:22:18;;;;;;;97.43;41.42;;;;;;;;;;4972538;28;20512;-76
2022/12/31 12:25:11;;;;;;;101.20;41.42;;;;;;;;;;4972507;28;20504;-76
2022/12/31 12:27:37;;;;;;;82.25;36.15;;;;;;;;;;4965572;28;20061;-79
2022/12/31 12:30:19;;;;;;;86.60;37.10;;;;;;;;;;4972349;28;20095;-79
2022/12/31 12:32:59;;;;;;;96.40;38.42;;;;;;;;;;4971008;28;20532;-75
2022/12/31 12:35:28;;;;;;;101.53;41.58;;;;;;;;;;4972448;28;20039;-77
2022/12/31 12:38:06;;;;;;;105.05;42.63;;;;;;;;;;4973084;28;20540;-78
2022/12/31 12:40:33;;;;;;;105.15;41.28;;;;;;;;;;4972333;28;20102;-76
2022/12/31 12:43:00;;;;;;;107.00;42.63;;;;;;;;;;4976336;28;20023;-76
2022/12/31 12:45:36;;;;;;;100.93;41.80;;;;;;;;;;4975147;28;20038;-76
2022/12/31 12:48:11;;;;;;;98.97;39.65;;;;;;;;;;4976473;28;20039;-77
2022/12/31 12:50:44;;;;;;;89.28;36.67;;;;;;;;;;4976439;28;20077;-76
2022/12/31 12:53:25;;;;;;;96.30;38.10;;;;;;;;;;4975041;28;20058;-78
2022/12/31 12:55:57;;;;;;;94.68;37.50;;;;;;;;;;4977355;28;20370;-76
2022/12/31 12:58:41;;;;;;;97.18;38.80;;;;;;;;;;4976266;28;20117;-76
2022/12/31 13:01:06;;;;;;;;;;;;;;;;;;4959249;28;20185;-77
2022/12/31 13:03:56;;;;;;;108.00;40.38;;;;;;;;;;4975722;28;20004;-76
2022/12/31 13:06:55;;;;;;;100.10;39.38;;;;;;;;;;4976045;28;20042;-77
2022/12/31 13:09:48;;;;;;;114.53;41.80;;;;;;;;;;4976121;28;20079;-75
2022/12/31 13:12:19;;;;;;;109.45;43.50;;;;;;;;;;4957573;28;20134;-79
2022/12/31 13:14:50;;;;;;;101.18;38.55;;;;;;;;;;4976059;28;20022;-76
2022/12/31 13:17:54;;;;;;;95.00;37.47;;;;;;;;;;4975961;28;20042;-76
2022/12/31 13:20:48;;;;;;;92.53;38.33;;;;;;;;;;4919270;29;20031;-77
2022/12/31 13:23:25;;;;;;;113.35;41.15;;;;;;;;;;4975580;28;20038;-77
2022/12/31 13:26:17;;;;;;;101.20;39.53;;;;;;;;;;4975818;28;20463;-76
2022/12/31 13:28:47;;;;;;;110.88;42.03;;;;;;;;;;4975651;28;20063;-76
2022/12/31 13:31:17;;;;;;;97.65;41.20;;;;;;;;;;4975511;28;20150;-77
2022/12/31 13:33:48;;;;;;;103.03;40.65;;;;;;;;;;4988645;28;20050;-78
2022/12/31 13:36:41;;;;;;;114.70;42.40;;;;;;;;;;4977435;28;20121;-80
2022/12/31 13:39:24;;;;;;;109.13;40.58;;;;;;;;;;4974781;28;20527;-75
2022/12/31 13:42:12;;;;;;;121.25;42.95;;;;;;;;;;4970994;28;20078;-77
2022/12/31 13:44:50;;;;;;;96.25;38.85;;;;;;;;;;4960560;28;20492;-76
2022/12/31 13:47:31;;;;;;;98.07;41.33;;;;;;;;;;4978245;28;20034;-73
2022/12/31 13:50:07;;;;;;;103.47;39.58;;;;;;;;;;4988715;28;20039;-76
2022/12/31 13:52:56;;;;;;;96.63;39.83;;;;;;;;;;4974829;28;20069;-75
2022/12/31 13:55:37;;;;;;;96.93;39.58;;;;;;;;;;4975530;28;20031;-76
2022/12/31 13:58:35;;;;;;;96.93;39.38;;;;;;;;;;4975215;28;20393;-74
2022/12/31 14:01:27;;;;;;;98.18;39.13;;;;;;;;;;4971806;28;20476;-76
2022/12/31 14:04:19;;;;;;;94.53;37.63;;;;;;;;;;4975493;28;20035;-75
2022/12/31 14:07:04;;;;;;;103.00;43.00;;;;;;;;;;4988233;28;20043;-76
2022/12/31 14:09:33;;;;;;;94.18;34.88;;;;;;;;;;4975208;28;20035;-74
2022/12/31 14:12:28;;;;;;;91.18;37.80;;;;;;;;;;4975422;28;20065;-79
2022/12/31 14:15:20;;;;;;;71.68;33.00;;;;;;;;;;4970110;28;20050;-76
2022/12/31 14:18:27;;;;;;;91.63;36.35;;;;;;;;;;4974799;28;20026;-77
2022/12/31 14:21:13;;;;;;;75.75;32.33;;;;;;;;;;4974917;28;20035;-77
2022/12/31 14:24:06;;;;;;;83.25;32.65;;;;;;;;;;4971702;28;20034;-76
2022/12/31 14:26:40;;;;;;;78.35;33.90;;;;;;;;;;4973093;28;20053;-77
2022/12/31 14:29:09;;;;;;;84.00;32.70;;;;;;;;;;4974272;28;20043;-75
2022/12/31 14:31:47;;;;;;;79.78;34.88;;;;;;;;;;4974242;28;20035;-76
2022/12/31 14:34:48;;;;;;;73.60;33.03;;;;;;;;;;4974553;28;20125;-76
2022/12/31 14:37:44;;;;;;;89.18;36.13;;;;;;;;;;4963378;28;20035;-77
2022/12/31 14:40:23;;;;;;;88.13;37.10;;;;;;;;;;4974294;28;20053;-78
2022/12/31 14:43:27;;;;;;;98.40;40.40;;;;;;;;;;4974428;28;20161;-76
2022/12/31 14:46:20;;;;;;;110.55;42.00;;;;;;;;;;4953132;28;20401;-76
2022/12/31 14:49:05;;;;;;;129.55;43.33;;;;;;;;;;4971935;28;20046;-76
2022/12/31 14:51:34;;;;;;;110.13;39.47;;;;;;;;;;4974157;28;20046;-77
2022/12/31 14:54:00;;;;;;;118.82;42.60;;;;;;;;;;4972605;28;20500;-75
2022/12/31 14:56:28;;;;;;;123.32;42.17;;;;;;;;;;4973550;28;20030;-74
2022/12/31 14:59:01;;;;;;;132.65;40.45;;;;;;;;;;4974149;28;20027;-76
2022/12/31 15:01:27;;;;;;;146.60;43.60;;;;;;;;;;4972660;28;20035;-75
2022/12/31 15:03:56;;;;;;;120.40;42.22;;;;;;;;;;4972888;28;20070;-77
2022/12/31 15:06:22;;;;;;;138.73;38.42;;;;;;;;;;4973429;28;20066;-76
2022/12/31 15:09:24;;;;;;;92.10;32.80;;;;;;;;;;4972353;28;20046;-76